createdAt,value
2023-05-21T00:02:22.120Z,40.17
2023-05-21T00:05:07.762Z,40.38
2023-05-21T00:07:53.022Z,40.08
2023-05-21T00:10:38.566Z,40.15
2023-05-21T00:13:23.935Z,40.25
2023-05-21T00:16:09.383Z,40.05
2023-05-21T00:18:54.869Z,39.99
2023-05-21T00:21:40.278Z,40.31
2023-05-21T00:24:25.450Z,40.19
2023-05-21T00:27:10.821Z,39.89
2023-05-21T00:29:56.133Z,40.28
2023-05-21T00:32:44.608Z,40.07
2023-05-21T00:35:30.086Z,40.28
2023-05-21T00:38:15.383Z,39.86
2023-05-21T00:41:00.784Z,40.21
2023-05-21T00:43:46.205Z,39.93
2023-05-21T00:46:31.575Z,40.21
2023-05-21T00:49:17.010Z,40.02
2023-05-21T00:52:02.278Z,40.04
2023-05-21T00:54:47.768Z,40.15
2023-05-21T00:57:32.866Z,39.93
2023-05-21T01:00:18.194Z,40.20
2023-05-21T01:03:03.840Z,40.12
2023-05-21T01:05:49.105Z,39.86
2023-05-21T01:08:34.574Z,39.77
2023-05-21T01:11:19.862Z,40.37
2023-05-21T01:14:05.479Z,39.98
2023-05-21T01:16:50.976Z,40.29
2023-05-21T01:19:36.160Z,40.17
2023-05-21T01:22:21.308Z,39.97
2023-05-21T01:25:06.654Z,39.88
2023-05-21T01:27:52.092Z,40.10
2023-05-21T01:30:37.460Z,40.08
2023-05-21T01:33:22.787Z,40.22
2023-05-21T01:36:08.277Z,40.32
2023-05-21T01:38:53.564Z,40.09
2023-05-21T01:41:39.080Z,40.07
2023-05-21T01:44:24.274Z,39.97
2023-05-21T01:47:09.399Z,40.05
2023-05-21T01:49:54.744Z,40.12
2023-05-21T01:52:39.972Z,39.86
2023-05-21T01:55:26.117Z,39.99
2023-05-21T01:58:11.393Z,40.08
2023-05-21T02:00:56.865Z,40.17
2023-05-21T02:03:42.244Z,39.82
2023-05-21T02:06:27.537Z,39.87
2023-05-21T02:09:12.979Z,40.07
2023-05-21T02:11:58.455Z,40.21
2023-05-21T02:14:43.830Z,39.81
2023-05-21T02:17:29.285Z,39.97
2023-05-21T02:20:14.676Z,39.78
2023-05-21T02:23:00.184Z,39.66
2023-05-21T02:25:45.620Z,39.96
2023-05-21T02:28:31.152Z,40.33
2023-05-21T02:31:16.489Z,40.30
2023-05-21T02:34:02.007Z,40.11
2023-05-21T02:36:47.436Z,39.83
2023-05-21T02:39:32.802Z,40.15
2023-05-21T02:42:18.276Z,39.91
2023-05-21T02:45:03.616Z,40.04
2023-05-21T02:47:48.847Z,39.89
2023-05-21T02:50:34.303Z,40.11
2023-05-21T02:53:19.647Z,40.18
2023-05-21T02:56:05.211Z,40.51
2023-05-21T02:58:50.529Z,40.23
2023-05-21T03:01:35.865Z,39.77
2023-05-21T03:04:21.215Z,39.76
2023-05-21T03:07:06.502Z,40.14
2023-05-21T03:09:51.896Z,40.13
2023-05-21T03:12:37.220Z,40.30
2023-05-21T03:15:22.782Z,39.91
2023-05-21T03:18:08.181Z,40.23
2023-05-21T03:20:53.287Z,39.81
2023-05-21T03:23:38.708Z,40.22
2023-05-21T03:26:23.958Z,40.28
2023-05-21T03:29:09.428Z,40.17
2023-05-21T03:31:54.975Z,40.11
2023-05-21T03:34:40.257Z,40.21
2023-05-21T03:37:25.754Z,40.23
2023-05-21T03:40:11.005Z,40.25
2023-05-21T03:42:56.397Z,40.09
2023-05-21T03:45:44.210Z,39.90
2023-05-21T03:48:29.654Z,39.82
2023-05-21T03:51:15.023Z,40.20
2023-05-21T03:54:00.369Z,40.17
2023-05-21T03:56:45.526Z,39.72
2023-05-21T03:59:31.076Z,40.43
2023-05-21T04:02:16.736Z,40.67
2023-05-21T04:05:02.024Z,40.30
2023-05-21T04:07:47.302Z,40.04
2023-05-21T04:10:32.434Z,40.04
2023-05-21T04:13:17.909Z,40.28
2023-05-21T04:16:03.395Z,40.37
2023-05-21T04:18:48.846Z,40.27
2023-05-21T04:21:34.207Z,40.41
2023-05-21T04:24:19.570Z,40.29
2023-05-21T04:27:04.804Z,40.26
2023-05-21T04:29:50.759Z,40.30
2023-05-21T04:32:35.955Z,40.38
2023-05-21T04:35:21.113Z,40.14
2023-05-21T04:38:06.459Z,40.30
2023-05-21T04:40:51.818Z,40.02
2023-05-21T04:43:37.204Z,40.21
2023-05-21T04:46:22.497Z,40.58
2023-05-21T04:49:07.945Z,39.96
2023-05-21T04:51:53.215Z,40.23
2023-05-21T04:54:38.418Z,40.31
2023-05-21T04:57:26.813Z,40.01
2023-05-21T05:00:11.961Z,40.46
2023-05-21T05:02:57.481Z,40.22
2023-05-21T05:05:42.808Z,40.17
2023-05-21T05:08:28.145Z,40.11
2023-05-21T05:11:13.541Z,39.88
2023-05-21T05:13:58.859Z,40.33
2023-05-21T05:16:44.260Z,40.43
2023-05-21T05:19:29.861Z,40.29
2023-05-21T05:22:15.043Z,40.43
2023-05-21T05:25:00.582Z,40.90
2023-05-21T05:27:45.955Z,40.73
2023-05-21T05:30:31.323Z,40.54
2023-05-21T05:33:16.508Z,41.17
2023-05-21T05:36:01.815Z,41.08
2023-05-21T05:38:47.240Z,40.72
2023-05-21T05:41:32.511Z,41.42
2023-05-21T05:44:17.973Z,41.06
2023-05-21T05:47:03.382Z,40.78
2023-05-21T05:49:48.404Z,40.73
2023-05-21T05:52:33.656Z,40.69
2023-05-21T05:55:19.112Z,41.03
2023-05-21T05:58:04.118Z,41.43
2023-05-21T06:00:49.372Z,40.96
2023-05-21T06:03:34.842Z,41.33
2023-05-21T06:06:20.076Z,42.11
2023-05-21T06:09:05.638Z,42.32
2023-05-21T06:11:50.923Z,42.84
2023-05-21T06:14:36.337Z,42.80
2023-05-21T06:17:21.788Z,42.56
2023-05-21T06:20:07.041Z,42.22
2023-05-21T06:22:52.336Z,42.19
2023-05-21T06:25:37.994Z,42.14
2023-05-21T06:28:23.687Z,42.22
2023-05-21T06:31:08.926Z,42.20
2023-05-21T06:33:54.113Z,41.98
2023-05-21T06:36:39.371Z,41.81
2023-05-21T06:39:24.748Z,41.77
2023-05-21T06:42:10.233Z,41.65
2023-05-21T06:44:55.291Z,41.78
2023-05-21T06:47:40.691Z,41.66
2023-05-21T06:50:26.109Z,41.73
2023-05-21T06:53:11.566Z,41.33
2023-05-21T06:55:57.069Z,41.59
2023-05-21T06:58:42.291Z,41.70
2023-05-21T07:01:27.801Z,41.74
2023-05-21T07:04:13.128Z,41.54
2023-05-21T07:06:58.385Z,41.52
2023-05-21T07:09:43.921Z,42.30
2023-05-21T07:12:29.227Z,42.18
2023-05-21T07:15:14.797Z,42.45
2023-05-21T07:18:00.159Z,42.10
2023-05-21T07:20:45.480Z,42.06
2023-05-21T07:23:30.895Z,41.78
2023-05-21T07:26:16.249Z,41.93
2023-05-21T07:29:01.792Z,41.74
2023-05-21T07:31:47.282Z,41.80
2023-05-21T07:34:32.679Z,41.46
2023-05-21T07:37:18.120Z,41.75
2023-05-21T07:40:03.417Z,41.66
2023-05-21T07:42:48.886Z,43.78
2023-05-21T07:45:34.459Z,43.43
2023-05-21T07:48:19.599Z,43.56
2023-05-21T07:51:04.974Z,43.39
2023-05-21T07:53:50.346Z,44.18
2023-05-21T07:56:35.748Z,44.70
2023-05-21T07:59:21.135Z,44.96
2023-05-21T08:02:06.622Z,44.86
2023-05-21T08:04:51.981Z,45.22
2023-05-21T08:07:37.109Z,44.91
2023-05-21T08:10:22.421Z,44.34
2023-05-21T08:13:07.679Z,44.83
2023-05-21T08:15:53.582Z,44.36
2023-05-21T08:18:38.601Z,44.16
2023-05-21T08:21:23.788Z,44.27
2023-05-21T08:24:09.119Z,44.67
2023-05-21T08:26:54.491Z,43.99
2023-05-21T08:29:39.822Z,44.51
2023-05-21T08:32:25.128Z,43.63
2023-05-21T08:35:10.585Z,44.13
2023-05-21T08:37:55.806Z,43.71
2023-05-21T08:40:41.158Z,44.06
2023-05-21T08:43:26.544Z,44.22
2023-05-21T08:46:11.812Z,44.05
2023-05-21T08:48:57.256Z,44.02
2023-05-21T08:51:42.638Z,44.00
2023-05-21T08:54:27.870Z,44.31
2023-05-21T08:57:13.330Z,43.84
2023-05-21T08:59:58.656Z,43.84
2023-05-21T09:02:44.257Z,44.10
2023-05-21T09:05:29.519Z,43.82
2023-05-21T09:08:14.910Z,43.95
2023-05-21T09:11:00.257Z,43.52
2023-05-21T09:13:45.246Z,43.88
2023-05-21T09:16:30.651Z,43.73
2023-05-21T09:19:15.891Z,43.44
2023-05-21T09:22:01.233Z,43.29
2023-05-21T09:24:46.206Z,43.67
2023-05-21T09:27:31.261Z,43.54
2023-05-21T09:30:16.645Z,43.38
2023-05-21T09:33:02.105Z,43.61
2023-05-21T09:35:47.422Z,43.80
2023-05-21T09:38:32.667Z,43.19
2023-05-21T09:41:21.576Z,43.89
2023-05-21T09:44:07.673Z,43.41
2023-05-21T09:46:53.140Z,43.42
2023-05-21T09:49:38.482Z,43.31
2023-05-21T09:52:23.673Z,43.04
2023-05-21T09:55:08.951Z,43.11
2023-05-21T09:57:54.268Z,43.35
2023-05-21T10:00:39.567Z,43.60
2023-05-21T10:03:24.947Z,43.74
2023-05-21T10:06:10.241Z,43.94
2023-05-21T10:08:55.634Z,44.23
2023-05-21T10:11:41.118Z,44.39
2023-05-21T10:14:26.557Z,43.56
2023-05-21T10:17:12.059Z,43.67
2023-05-21T10:19:57.315Z,44.02
2023-05-21T10:22:45.531Z,43.86
2023-05-21T10:25:30.941Z,43.68
2023-05-21T10:28:16.129Z,44.27
2023-05-21T10:31:01.756Z,43.49
2023-05-21T10:33:47.101Z,43.38
2023-05-21T10:36:32.574Z,43.84
2023-05-21T10:39:17.978Z,44.51
2023-05-21T10:42:03.301Z,44.07
2023-05-21T10:44:48.739Z,43.86
2023-05-21T10:47:34.182Z,45.55
2023-05-21T10:50:19.603Z,45.07
2023-05-21T10:53:05.056Z,46.01
2023-05-21T10:55:50.258Z,46.27
2023-05-21T10:58:35.735Z,46.22
2023-05-21T11:01:20.794Z,45.88
2023-05-21T11:04:06.061Z,46.04
2023-05-21T11:06:51.281Z,45.44
2023-05-21T11:09:36.631Z,45.21
2023-05-21T11:12:22.046Z,45.25
2023-05-21T11:15:07.391Z,45.14
2023-05-21T11:17:52.890Z,44.57
2023-05-21T11:20:38.294Z,44.97
2023-05-21T11:23:23.540Z,44.73
2023-05-21T11:26:08.784Z,44.73
2023-05-21T11:28:54.264Z,44.15
2023-05-21T11:31:39.835Z,44.22
2023-05-21T11:34:25.040Z,44.15
2023-05-21T11:37:10.474Z,44.12
2023-05-21T11:39:55.776Z,44.61
2023-05-21T11:42:41.029Z,43.89
2023-05-21T11:45:26.157Z,44.31
2023-05-21T11:48:11.736Z,44.10
2023-05-21T11:50:56.869Z,43.91
2023-05-21T11:53:43.515Z,43.47
2023-05-21T11:56:29.679Z,43.74
2023-05-21T11:59:17.129Z,43.81
2023-05-21T12:02:03.996Z,43.79
2023-05-21T12:04:49.389Z,43.63
2023-05-21T12:07:34.807Z,43.71
2023-05-21T12:10:20.146Z,43.41
2023-05-21T12:13:05.578Z,43.31
2023-05-21T12:15:50.893Z,43.48
2023-05-21T12:18:36.757Z,43.45
2023-05-21T12:21:22.225Z,43.25
2023-05-21T12:24:07.607Z,42.94
2023-05-21T12:26:52.935Z,43.29
2023-05-21T12:29:38.038Z,43.10
2023-05-21T12:32:23.429Z,43.46
2023-05-21T12:35:08.711Z,42.95
2023-05-21T12:37:53.992Z,43.20
2023-05-21T12:40:40.162Z,43.43
2023-05-21T12:43:25.674Z,43.22
2023-05-21T12:46:11.159Z,43.23
2023-05-21T12:48:56.367Z,42.81
2023-05-21T12:51:41.501Z,43.28
2023-05-21T12:54:26.815Z,43.30
2023-05-21T12:57:12.075Z,43.17
2023-05-21T12:59:57.438Z,42.89
2023-05-21T13:02:42.732Z,42.79
2023-05-21T13:05:28.990Z,42.77
2023-05-21T13:08:14.426Z,43.39
2023-05-21T13:10:59.679Z,42.94
2023-05-21T13:13:45.279Z,42.75
2023-05-21T13:16:30.748Z,42.91
2023-05-21T13:19:16.110Z,42.98
2023-05-21T13:22:01.241Z,42.89
2023-05-21T13:24:46.555Z,43.58
2023-05-21T13:27:32.078Z,43.09
2023-05-21T13:30:17.398Z,42.41
2023-05-21T13:33:03.000Z,42.75
2023-05-21T13:35:48.243Z,42.74
2023-05-21T13:38:33.695Z,42.99
2023-05-21T13:41:19.076Z,42.86
2023-05-21T13:44:04.340Z,42.52
2023-05-21T13:46:49.811Z,42.83
2023-05-21T13:49:35.039Z,43.04
2023-05-21T13:52:20.388Z,43.42
2023-05-21T13:55:06.012Z,43.12
2023-05-21T13:57:51.330Z,43.11
2023-05-21T14:00:36.799Z,43.17
2023-05-21T14:03:21.928Z,42.34
2023-05-21T14:06:07.192Z,42.23
2023-05-21T14:08:52.454Z,42.19
2023-05-21T14:11:37.878Z,42.72
2023-05-21T14:14:23.266Z,42.20
2023-05-21T14:17:08.552Z,41.93
2023-05-21T14:19:54.031Z,41.57
2023-05-21T14:22:39.615Z,41.80
2023-05-21T14:25:24.904Z,42.05
2023-05-21T14:28:10.139Z,41.76
2023-05-21T14:30:56.526Z,42.27
2023-05-21T14:33:41.979Z,41.68
2023-05-21T14:36:27.168Z,41.87
2023-05-21T14:39:12.666Z,42.33
2023-05-21T14:41:58.053Z,42.61
2023-05-21T14:44:43.786Z,42.75
2023-05-21T14:47:29.068Z,42.87
2023-05-21T14:50:14.243Z,42.50
2023-05-21T14:52:59.509Z,42.75
2023-05-21T14:55:44.794Z,43.16
2023-05-21T14:58:29.921Z,42.77
2023-05-21T15:01:15.313Z,42.41
2023-05-21T15:04:00.736Z,42.46
2023-05-21T15:06:46.376Z,42.32
2023-05-21T15:09:32.858Z,42.22
2023-05-21T15:12:18.310Z,42.29
2023-05-21T15:15:03.712Z,41.94
2023-05-21T15:17:48.853Z,41.96
2023-05-21T15:20:34.525Z,41.59
2023-05-21T15:23:19.828Z,41.39
2023-05-21T15:26:05.319Z,41.57
2023-05-21T15:28:50.663Z,41.15
2023-05-21T15:31:35.938Z,41.11
2023-05-21T15:34:21.171Z,40.94
2023-05-21T15:37:06.619Z,40.59
2023-05-21T15:39:52.033Z,40.70
2023-05-21T15:42:37.289Z,40.18
2023-05-21T15:45:22.820Z,39.79
2023-05-21T15:48:08.113Z,39.92
2023-05-21T15:50:53.504Z,39.64
2023-05-21T15:53:39.014Z,39.22
2023-05-21T15:56:24.318Z,39.25
2023-05-21T15:59:10.829Z,38.83
2023-05-21T16:01:56.270Z,38.60
2023-05-21T16:04:41.542Z,38.16
2023-05-21T16:07:26.925Z,37.96
2023-05-21T16:10:12.267Z,38.10
2023-05-21T16:12:57.643Z,37.72
2023-05-21T16:15:42.935Z,38.05
2023-05-21T16:18:28.350Z,38.02
2023-05-21T16:21:13.786Z,37.99
2023-05-21T16:23:58.984Z,38.49
2023-05-21T16:26:44.454Z,38.41
2023-05-21T16:29:29.915Z,38.63
2023-05-21T16:32:15.242Z,38.21
2023-05-21T16:35:00.489Z,38.99
2023-05-21T16:37:45.753Z,39.17
2023-05-21T16:40:31.072Z,39.68
2023-05-21T16:43:16.387Z,39.45
2023-05-21T16:46:01.826Z,39.25
2023-05-21T16:48:47.091Z,39.67
2023-05-21T16:51:32.561Z,39.69
2023-05-21T16:54:17.991Z,39.82
2023-05-21T16:57:03.184Z,40.02
2023-05-21T16:59:48.460Z,40.40
2023-05-21T17:02:33.861Z,40.58
2023-05-21T17:05:19.297Z,40.88
2023-05-21T17:08:04.858Z,40.84
2023-05-21T17:10:50.137Z,41.64
2023-05-21T17:13:35.497Z,42.08
2023-05-21T17:16:20.779Z,41.52
2023-05-21T17:19:06.279Z,41.66
2023-05-21T17:21:51.697Z,41.94
2023-05-21T17:24:37.146Z,41.74
2023-05-21T17:27:22.397Z,41.67
2023-05-21T17:30:07.497Z,42.11
2023-05-21T17:32:52.905Z,41.98
2023-05-21T17:35:38.416Z,42.18
2023-05-21T17:38:23.972Z,42.03
2023-05-21T17:41:09.342Z,42.11
2023-05-21T17:43:57.776Z,42.45
2023-05-21T17:46:43.202Z,42.40
2023-05-21T17:49:28.714Z,42.49
2023-05-21T17:52:13.953Z,42.50
2023-05-21T17:54:59.409Z,42.59
2023-05-21T17:57:44.906Z,42.36
2023-05-21T18:00:30.356Z,42.42
2023-05-21T18:03:15.654Z,42.89
2023-05-21T18:06:01.062Z,42.84
2023-05-21T18:08:46.327Z,43.28
2023-05-21T18:11:31.720Z,42.87
2023-05-21T18:14:17.142Z,43.40
2023-05-21T18:17:02.673Z,43.39
2023-05-21T18:19:48.013Z,43.64
2023-05-21T18:22:33.357Z,43.35
2023-05-21T18:25:18.702Z,43.40
2023-05-21T18:28:04.086Z,43.55
2023-05-21T18:30:49.344Z,43.80
2023-05-21T18:33:34.791Z,43.99
2023-05-21T18:36:20.257Z,43.78
2023-05-21T18:39:05.692Z,44.03
2023-05-21T18:41:53.698Z,44.02
2023-05-21T18:44:47.040Z,44.28
2023-05-21T18:47:32.504Z,44.06
2023-05-21T18:50:17.651Z,44.06
2023-05-21T18:53:03.229Z,43.95
2023-05-21T18:55:48.570Z,44.13
2023-05-21T18:58:33.917Z,44.16
2023-05-21T19:01:19.174Z,44.02
2023-05-21T19:04:04.463Z,43.79
2023-05-21T19:06:49.688Z,44.00
2023-05-21T19:09:35.121Z,44.04
2023-05-21T19:12:20.471Z,43.89
2023-05-21T19:15:05.767Z,43.64
2023-05-21T19:17:51.144Z,43.78
2023-05-21T19:20:36.670Z,43.52
2023-05-21T19:23:22.177Z,43.11
2023-05-21T19:26:07.686Z,43.56
2023-05-21T19:28:53.454Z,42.95
2023-05-21T19:31:39.383Z,43.34
2023-05-21T19:34:24.980Z,43.07
2023-05-21T19:37:10.221Z,43.42
2023-05-21T19:39:55.674Z,43.07
2023-05-21T19:42:40.864Z,43.38
2023-05-21T19:45:26.448Z,43.12
2023-05-21T19:48:11.717Z,43.47
2023-05-21T19:50:57.115Z,42.97
2023-05-21T19:53:42.414Z,42.99
2023-05-21T19:56:27.766Z,42.82
2023-05-21T19:59:15.985Z,42.79
2023-05-21T20:02:01.359Z,42.85
2023-05-21T20:04:46.654Z,43.10
2023-05-21T20:07:32.243Z,43.07
2023-05-21T20:10:17.596Z,43.30
2023-05-21T20:13:02.713Z,43.17
2023-05-21T20:15:51.159Z,43.02
2023-05-21T20:18:36.320Z,42.93
2023-05-21T20:21:21.778Z,43.25
2023-05-21T20:24:07.100Z,42.99
2023-05-21T20:26:52.467Z,43.06
2023-05-21T20:29:37.926Z,42.87
2023-05-21T20:32:23.245Z,43.03
2023-05-21T20:35:08.585Z,42.96
2023-05-21T20:37:53.705Z,43.08
2023-05-21T20:40:39.145Z,42.74
2023-05-21T20:43:24.430Z,43.16
2023-05-21T20:46:09.608Z,42.82
2023-05-21T20:48:54.980Z,42.97
2023-05-21T20:51:40.313Z,42.88
2023-05-21T20:54:25.571Z,43.42
2023-05-21T20:57:10.872Z,43.55
2023-05-21T20:59:56.314Z,43.26
2023-05-21T21:02:41.725Z,43.56
2023-05-21T21:05:26.876Z,43.58
2023-05-21T21:08:12.348Z,43.66
2023-05-21T21:10:57.572Z,43.71
2023-05-21T21:13:42.998Z,43.55
2023-05-21T21:16:28.408Z,43.13
2023-05-21T21:19:13.735Z,43.36
2023-05-21T21:21:59.022Z,43.15
2023-05-21T21:24:44.229Z,43.30
2023-05-21T21:27:29.675Z,43.78
2023-05-21T21:30:15.114Z,43.71
2023-05-21T21:33:00.644Z,43.66
2023-05-21T21:35:45.984Z,43.71
2023-05-21T21:38:31.348Z,43.51
2023-05-21T21:41:16.749Z,43.73
2023-05-21T21:44:02.105Z,43.41
2023-05-21T21:46:47.495Z,43.86
2023-05-21T21:49:32.811Z,43.79
2023-05-21T21:52:18.169Z,43.94
2023-05-21T21:55:03.612Z,43.76
2023-05-21T21:57:48.796Z,43.57
2023-05-21T22:00:34.205Z,43.70
2023-05-21T22:03:19.548Z,43.66
2023-05-21T22:06:05.005Z,43.85
2023-05-21T22:08:50.458Z,44.16
2023-05-21T22:11:35.767Z,44.03
2023-05-21T22:14:21.233Z,44.18
2023-05-21T22:17:06.537Z,43.97
2023-05-21T22:19:51.888Z,43.92
2023-05-21T22:22:37.224Z,44.14
2023-05-21T22:25:22.518Z,43.79
2023-05-21T22:28:08.008Z,43.71
2023-05-21T22:30:53.244Z,43.97
2023-05-21T22:33:38.695Z,43.59
2023-05-21T22:36:24.046Z,44.22
2023-05-21T22:39:09.470Z,43.78
2023-05-21T22:41:54.803Z,43.86
2023-05-21T22:44:39.831Z,43.95
2023-05-21T22:47:25.031Z,44.05
2023-05-21T22:50:10.436Z,43.86
2023-05-21T22:52:55.664Z,44.15
2023-05-21T22:55:40.997Z,43.94
2023-05-21T22:58:26.281Z,44.22
2023-05-21T23:01:11.647Z,44.24
2023-05-21T23:03:56.915Z,43.83
2023-05-21T23:06:42.206Z,44.09
2023-05-21T23:09:27.516Z,44.33
2023-05-21T23:12:12.847Z,44.15
2023-05-21T23:14:58.242Z,43.96
2023-05-21T23:17:43.538Z,43.86
2023-05-21T23:20:28.688Z,44.16
2023-05-21T23:23:13.927Z,44.00
2023-05-21T23:25:59.127Z,44.05
2023-05-21T23:28:44.454Z,44.38
2023-05-21T23:31:29.774Z,44.10
2023-05-21T23:34:15.052Z,43.96
2023-05-21T23:37:00.641Z,44.40
2023-05-21T23:39:46.188Z,44.17
2023-05-21T23:42:31.464Z,44.16
2023-05-21T23:45:16.828Z,44.16
2023-05-21T23:48:02.302Z,44.18
2023-05-21T23:50:47.549Z,44.32
2023-05-21T23:53:33.115Z,43.90
2023-05-21T23:56:18.318Z,44.29
2023-05-21T23:59:03.863Z,44.26
